Time;durP1;ratioP1;P1;durP2;ratioP2;P2;SDS_P1;SDS_P2;PMS_P1;PMS_P2;Temp;Humidity;BMP_temperature;BMP_pressure;BME280_temperature;BME280_humidity;BME280_pressure;Samples;Min_cycle;Max_cycle;Signal;HPM_P1;HPM_P2
2022/04/14 00:00:59;;;;;;;19.75;16.60;;;;;;;10.01;83.34;100255.05;1758511;80;20964;-80
2022/04/14 00:03:26;;;;;;;19.17;17.17;;;;;;;10.01;83.35;100252.44;1758559;80;21219;-82
2022/04/14 00:05:55;;;;;;;22.87;17.42;;;;;;;10.01;83.25;100252.44;1758891;80;20845;-81
2022/04/14 00:08:21;;;;;;;23.45;16.55;;;;;;;10.04;83.20;100257.95;1758973;80;20971;-79
2022/04/14 00:10:49;;;;;;;17.95;16.02;;;;;;;10.06;83.18;100259.52;1759236;81;21476;-78
2022/04/14 00:13:16;;;;;;;19.35;17.00;;;;;;;10.05;82.75;100256.55;1761187;81;20892;-78
2022/04/14 00:15:45;;;;;;;19.17;16.17;;;;;;;10.01;82.68;100270.77;1760683;80;20892;-81
2022/04/14 00:18:11;;;;;;;19.07;16.32;;;;;;;9.99;82.54;100263.48;1758436;81;20920;-79
2022/04/14 00:20:38;;;;;;;21.82;17.55;;;;;;;9.98;82.59;100270.95;1758401;81;21015;-81
2022/04/14 00:23:06;;;;;;;20.00;16.45;;;;;;;9.99;82.64;100277.89;1758296;81;20920;-79
2022/04/14 00:25:34;;;;;;;20.68;16.45;;;;;;;9.99;82.54;100276.58;1758762;80;20856;-80
2022/04/14 00:28:03;;;;;;;19.20;16.07;;;;;;;10.00;82.49;100278.72;1758660;81;21269;-79
2022/04/14 00:30:29;;;;;;;22.07;17.77;;;;;;;9.98;82.50;100280.59;1758872;81;20987;-81
2022/04/14 00:32:56;;;;;;;21.20;17.12;;;;;;;10.00;82.45;100281.34;1758363;81;20888;-79
2022/04/14 00:35:23;;;;;;;19.37;16.40;;;;;;;9.99;82.33;100284.91;1758936;81;20963;-80
2022/04/14 00:37:49;;;;;;;19.10;16.85;;;;;;;9.97;82.36;100288.92;1758650;81;20956;-80
2022/04/14 00:40:17;;;;;;;21.30;17.73;;;;;;;9.98;82.32;100293.69;1758687;80;21192;-80
2022/04/14 00:42:43;;;;;;;18.50;16.25;;;;;;;9.98;82.16;100295.00;1758851;81;20920;-79
2022/04/14 00:45:10;;;;;;;24.23;17.20;;;;;;;9.96;82.12;100300.36;1758148;81;20936;-80
2022/04/14 00:47:38;;;;;;;23.65;17.48;;;;;;;9.94;82.09;100303.06;1758075;81;20876;-79
2022/04/14 00:50:06;;;;;;;19.50;17.07;;;;;;;9.94;82.08;100299.61;1758154;81;20880;-80
2022/04/14 00:52:34;;;;;;;20.43;18.15;;;;;;;9.93;82.09;100303.15;1758091;81;21358;-81
2022/04/14 00:55:00;;;;;;;22.27;17.92;;;;;;;9.93;82.09;100303.15;1758056;81;21500;-80
2022/04/14 00:57:28;;;;;;;19.40;15.88;;;;;;;9.95;82.03;100306.52;1758156;81;20932;-81
2022/04/14 00:59:55;;;;;;;19.62;17.52;;;;;;;9.94;81.93;100313.54;1741106;81;20943;-81
2022/04/14 01:02:22;;;;;;;23.07;17.10;;;;;;;9.94;81.79;100310.92;1758028;81;20952;-81
2022/04/14 01:04:49;;;;;;;19.98;16.02;;;;;;;9.92;81.78;100314.58;1758073;81;21205;-82
2022/04/14 01:07:16;;;;;;;19.90;15.15;;;;;;;9.90;81.78;100315.14;1757930;80;20865;-79
2022/04/14 01:09:44;;;;;;;20.35;16.95;;;;;;;9.88;81.79;100308.67;1758197;81;20856;-80
2022/04/14 01:12:11;;;;;;;22.65;16.32;;;;;;;9.88;81.89;100314.39;1741310;81;21003;-80
2022/04/14 01:14:39;;;;;;;20.80;15.18;;;;;;;9.89;81.86;100314.30;1758294;81;20995;-78
2022/04/14 01:17:08;;;;;;;23.47;17.07;;;;;;;9.85;81.64;100322.41;1758089;80;22113;-80
2022/04/14 01:19:37;;;;;;;17.25;15.18;;;;;;;9.82;81.86;100314.77;1758022;81;20940;-81
2022/04/14 01:22:12;;;;;;;17.52;15.80;;;;;;;9.84;81.83;100316.34;1758074;81;21457;-81
2022/04/14 01:24:39;;;;;;;;;;;;;;;9.81;81.64;100319.16;1760882;81;21594;-79
2022/04/14 01:27:07;;;;;;;19.70;15.03;;;;;;;9.78;81.68;100314.09;1758123;80;20125;-80
2022/04/14 01:29:34;;;;;;;19.05;16.05;;;;;;;9.75;81.73;100320.84;1758129;81;21202;-80
2022/04/14 01:32:02;;;;;;;19.98;16.02;;;;;;;9.72;81.86;100321.87;1757932;81;20939;-81
2022/04/14 01:34:31;;;;;;;19.65;15.95;;;;;;;9.71;81.92;100329.34;1745059;81;20976;-80
2022/04/14 01:37:04;;;;;;;20.20;16.30;;;;;;;9.73;82.02;100333.19;1744576;82;20989;-80
2022/04/14 01:39:28;;;;;;;19.25;15.78;;;;;;;9.74;81.98;100332.27;1743889;81;20892;-80
2022/04/14 01:41:55;;;;;;;22.07;17.02;;;;;;;9.75;81.96;100332.63;1744721;82;21234;-80
2022/04/14 01:44:21;;;;;;;20.80;15.10;;;;;;;9.75;81.75;100334.77;1744849;82;20933;-79
2022/04/14 01:46:48;;;;;;;18.98;16.90;;;;;;;9.74;81.77;100337.50;1744844;82;20858;-81
2022/04/14 01:49:16;;;;;;;16.87;15.13;;;;;;;9.72;81.76;100334.14;1744761;81;20932;-81
2022/04/14 01:51:42;;;;;;;18.05;15.23;;;;;;;9.72;81.87;100345.92;1744851;82;20920;-82
2022/04/14 01:54:09;;;;;;;16.82;14.33;;;;;;;9.71;81.72;100343.75;1744561;81;21215;-81
2022/04/14 01:56:35;;;;;;;18.32;15.05;;;;;;;9.71;81.74;100349.45;1744460;82;20932;-80
2022/04/14 01:59:02;;;;;;;17.40;14.95;;;;;;;9.72;81.83;100351.98;1744675;82;20964;-80
2022/04/14 02:01:29;;;;;;;18.05;15.18;;;;;;;9.75;81.70;100349.65;1744686;82;20897;-80
2022/04/14 02:03:58;;;;;;;19.37;15.78;;;;;;;9.73;81.38;100348.42;1745002;82;20917;-79
2022/04/14 02:06:25;;;;;;;18.92;16.77;;;;;;;9.73;81.46;100351.52;1744628;81;21195;-80
2022/04/14 02:08:53;;;;;;;23.05;16.80;;;;;;;9.74;81.47;100366.31;1744604;81;20937;-80
2022/04/14 02:11:20;;;;;;;18.23;15.43;;;;;;;9.77;81.26;100363.49;1744691;82;20944;-81
2022/04/14 02:13:48;;;;;;;19.55;16.37;;;;;;;9.75;81.26;100362.74;1744600;81;20940;-80
2022/04/14 02:16:14;;;;;;;20.90;17.25;;;;;;;9.76;81.19;100360.52;1744801;82;20913;-80
2022/04/14 02:18:42;;;;;;;20.43;15.95;;;;;;;9.78;81.21;100369.56;1744763;81;21055;-80
2022/04/14 02:21:11;;;;;;;16.23;14.53;;;;;;;9.79;81.16;100369.48;1744948;82;21015;-80
2022/04/14 02:23:39;;;;;;;20.40;15.55;;;;;;;9.82;81.12;100379.76;1744585;80;20995;-80
2022/04/14 02:26:07;;;;;;;16.20;14.47;;;;;;;9.83;80.87;100378.00;1744669;82;20893;-80
2022/04/14 02:28:35;;;;;;;17.35;14.35;;;;;;;9.83;80.58;100378.84;1744591;81;20932;-80
2022/04/14 02:31:02;;;;;;;17.57;14.45;;;;;;;9.79;80.50;100377.34;1744806;82;22177;-80
2022/04/14 02:33:28;;;;;;;20.35;15.18;;;;;;;9.77;80.47;100374.44;1749614;81;20861;-80
2022/04/14 02:35:56;;;;;;;17.40;15.38;;;;;;;9.74;80.44;100377.62;1757921;81;20857;-80
2022/04/14 02:38:22;;;;;;;17.25;15.35;;;;;;;9.73;80.40;100375.92;1758023;81;20933;-81
2022/04/14 02:40:50;;;;;;;19.77;15.60;;;;;;;9.73;80.40;100380.32;1757984;81;20896;-80
2022/04/14 02:43:17;;;;;;;19.95;14.68;;;;;;;9.73;80.36;100391.62;1757922;80;21136;-79
2022/04/14 02:45:43;;;;;;;17.25;13.62;;;;;;;9.73;80.21;100389.48;1757977;80;20885;-79
2022/04/14 02:48:10;;;;;;;22.13;14.73;;;;;;;9.68;80.24;100396.31;1757928;81;20920;-80
2022/04/14 02:50:37;;;;;;;17.62;14.30;;;;;;;9.68;80.48;100407.26;1757922;81;20944;-79
2022/04/14 02:53:04;;;;;;;17.90;14.65;;;;;;;9.69;80.35;100405.00;1758014;81;20900;-81
2022/04/14 02:55:31;;;;;;;17.60;14.33;;;;;;;9.70;80.29;100406.70;1758058;81;21277;-80
2022/04/14 02:57:57;;;;;;;18.37;14.28;;;;;;;9.70;80.01;100408.84;1757881;81;21382;-81
2022/04/14 03:00:24;;;;;;;17.40;15.60;;;;;;;9.64;79.97;100410.52;1757921;80;20861;-80
2022/04/14 03:02:51;;;;;;;16.97;14.65;;;;;;;9.62;80.18;100405.83;1757784;80;20976;-80
2022/04/14 03:05:17;;;;;;;16.17;14.25;;;;;;;9.62;80.05;100412.85;1757925;81;20897;-81
2022/04/14 03:07:46;;;;;;;18.05;14.30;;;;;;;9.60;80.12;100412.93;1757966;81;20834;-80
2022/04/14 03:10:13;;;;;;;14.83;13.22;;;;;;;9.61;80.01;100417.25;1757815;80;21420;-81
2022/04/14 03:12:44;;;;;;;16.17;14.38;;;;;;;9.59;79.85;100423.52;1757916;81;21417;-80
2022/04/14 03:15:10;;;;;;;22.20;16.40;;;;;;;9.58;79.79;100430.98;1757790;81;20952;-81
2022/04/14 03:17:39;;;;;;;21.45;15.18;;;;;;;9.53;79.81;100432.09;1757976;81;21283;-79
2022/04/14 03:20:07;;;;;;;17.75;14.73;;;;;;;9.53;79.83;100437.32;1757948;80;21104;-80
2022/04/14 03:22:35;;;;;;;19.40;14.98;;;;;;;9.51;79.69;100443.11;1757795;80;20935;-81
2022/04/14 03:25:03;;;;;;;17.80;14.30;;;;;;;9.48;79.73;100431.52;1757944;81;20979;-81
2022/04/14 03:27:31;;;;;;;20.52;15.78;;;;;;;9.46;79.82;100445.63;1759104;80;20936;-81
2022/04/14 03:29:57;;;;;;;19.10;15.38;;;;;;;9.46;79.89;100446.95;1759307;81;20896;-79
2022/04/14 03:32:25;;;;;;;18.73;14.00;;;;;;;9.45;79.66;100454.41;1760365;80;20865;-80
2022/04/14 03:34:52;;;;;;;17.67;14.58;;;;;;;9.42;79.59;100459.35;1759770;81;20900;-78
2022/04/14 03:37:19;;;;;;;21.05;15.68;;;;;;;9.37;79.61;100465.33;1757872;81;20931;-80
2022/04/14 03:39:47;;;;;;;20.45;14.80;;;;;;;9.36;79.73;100464.09;1758121;81;20947;-80
2022/04/14 03:42:13;;;;;;;18.90;15.10;;;;;;;9.33;79.62;100469.88;1758212;81;20975;-80
2022/04/14 03:44:41;;;;;;;21.62;16.85;;;;;;;9.32;79.59;100479.98;1757935;80;21000;-80
2022/04/14 03:47:08;;;;;;;19.15;16.12;;;;;;;9.29;79.59;100481.92;1757791;80;20900;-81
2022/04/14 03:49:35;;;;;;;18.98;15.03;;;;;;;9.25;79.68;100491.73;1757916;81;20884;-81
2022/04/14 03:52:02;;;;;;;19.40;15.10;;;;;;;9.20;79.77;100487.20;1758012;81;20948;-80
2022/04/14 03:54:28;;;;;;;19.70;14.65;;;;;;;9.21;79.89;100488.08;1757813;80;20892;-80
2022/04/14 03:56:55;;;;;;;18.90;14.73;;;;;;;9.19;79.87;100497.31;1758228;81;21214;-80
2022/04/14 03:59:22;;;;;;;21.48;15.90;;;;;;;9.21;79.90;100510.31;1757785;81;20940;-80
2022/04/14 04:01:48;;;;;;;18.62;15.65;;;;;;;9.24;79.89;100508.83;1757977;81;21636;-81
2022/04/14 04:04:15;;;;;;;17.07;15.23;;;;;;;9.24;79.66;100512.75;1757982;81;21339;-79
2022/04/14 04:06:45;;;;;;;22.48;14.95;;;;;;;9.22;79.62;100518.06;1757877;81;21453;-80
2022/04/14 04:09:13;;;;;;;15.98;13.15;;;;;;;9.20;79.66;100520.39;1757915;81;20983;-81
2022/04/14 04:11:41;;;;;;;16.07;14.38;;;;;;;9.21;79.62;100526.02;1757847;81;20940;-80
2022/04/14 04:14:10;;;;;;;17.70;15.08;;;;;;;9.22;79.63;100523.29;1757987;81;21011;-80
2022/04/14 04:16:36;;;;;;;18.60;14.23;;;;;;;9.25;79.55;100530.98;1757824;81;20873;-80
2022/04/14 04:19:03;;;;;;;15.90;14.20;;;;;;;9.27;79.41;100538.29;1757958;81;20968;-80
2022/04/14 04:21:32;;;;;;;21.62;14.98;;;;;;;9.28;79.31;100539.97;1758044;81;20896;-80
2022/04/14 04:23:59;;;;;;;16.07;14.40;;;;;;;9.28;79.21;100532.59;1758225;81;20896;-80
2022/04/14 04:26:25;;;;;;;18.55;14.18;;;;;;;9.28;79.10;100539.13;1758038;81;21409;-79
2022/04/14 04:28:53;;;;;;;19.98;13.13;;;;;;;9.29;79.06;100546.03;1757994;81;20936;-79
2022/04/14 04:31:20;;;;;;;15.83;13.45;;;;;;;9.29;78.97;100549.95;1758146;80;21461;-80
2022/04/14 04:33:51;;;;;;;17.00;13.98;;;;;;;9.28;78.82;100545.67;1754288;80;21081;-80
2022/04/14 04:36:15;;;;;;;17.35;13.13;;;;;;;9.25;78.78;100544.52;1744752;81;20849;-81
2022/04/14 04:38:41;;;;;;;16.87;15.15;;;;;;;9.19;78.62;100553.56;1744709;82;21409;-80
2022/04/14 04:41:09;;;;;;;15.75;13.00;;;;;;;9.15;78.65;100557.27;1744671;81;21031;-80
2022/04/14 04:43:36;;;;;;;16.62;12.45;;;;;;;9.12;78.69;100560.91;1745075;82;20873;-81
2022/04/14 04:46:02;;;;;;;14.20;12.75;;;;;;;9.13;78.84;100559.96;1744799;82;21133;-81
2022/04/14 04:48:29;;;;;;;16.05;12.98;;;;;;;9.15;78.71;100565.59;1745087;81;20905;-81
2022/04/14 04:50:56;;;;;;;15.15;13.50;;;;;;;9.12;78.67;100566.61;1744802;80;20936;-81
2022/04/14 04:53:22;;;;;;;14.28;11.97;;;;;;;9.11;78.67;100568.83;1744988;82;21493;-82
2022/04/14 04:55:49;;;;;;;17.37;11.38;;;;;;;9.09;78.70;100563.70;1744690;81;20897;-82
2022/04/14 04:58:16;;;;;;;15.70;13.98;;;;;;;9.06;78.69;100575.63;1744695;81;21277;-80
2022/04/14 05:00:44;;;;;;;16.50;12.50;;;;;;;9.04;78.83;100572.71;1744517;81;20968;-81
2022/04/14 05:03:12;;;;;;;21.52;13.80;;;;;;;9.06;78.96;100580.85;1744662;82;20972;-81
2022/04/14 05:05:38;;;;;;;15.13;13.53;;;;;;;9.08;79.10;100581.62;1745031;82;20920;-80
2022/04/14 05:08:07;;;;;;;15.00;13.05;;;;;;;9.10;79.00;100578.92;1744752;81;20928;-80
2022/04/14 05:10:34;;;;;;;15.32;13.72;;;;;;;9.10;78.93;100582.38;1744604;82;21972;-82
2022/04/14 05:13:01;;;;;;;21.70;15.48;;;;;;;9.08;78.69;100586.02;1744748;82;20878;-81
2022/04/14 05:15:27;;;;;;;18.57;14.10;;;;;;;9.06;78.54;100581.33;1744690;82;20941;-83
2022/04/14 05:17:55;;;;;;;16.12;13.03;;;;;;;9.05;78.69;100589.64;1744681;81;20932;-81
2022/04/14 05:20:22;;;;;;;16.48;13.20;;;;;;;9.04;78.63;100586.63;1744814;81;21362;-82
2022/04/14 05:22:50;;;;;;;16.57;13.93;;;;;;;9.01;78.60;100597.27;1744653;81;20964;-81
2022/04/14 05:25:17;;;;;;;13.90;12.40;;;;;;;8.99;78.69;100593.89;1744624;82;20857;-82
2022/04/14 05:27:43;;;;;;;14.33;12.45;;;;;;;8.99;78.51;100593.05;1744727;82;21494;-81
2022/04/14 05:30:12;;;;;;;16.62;12.43;;;;;;;8.95;78.71;100596.75;1744457;81;20916;-81
2022/04/14 05:32:38;;;;;;;16.10;12.43;;;;;;;8.94;78.80;100593.30;1744523;82;20896;-81
2022/04/14 05:35:07;;;;;;;15.13;12.28;;;;;;;8.97;78.99;100598.83;1744529;82;21763;-82
2022/04/14 05:37:35;;;;;;;14.68;11.75;;;;;;;9.02;79.10;100600.25;1744479;81;20932;-82
2022/04/14 05:40:04;;;;;;;17.00;12.85;;;;;;;9.07;79.07;100595.64;1744517;80;20933;-80
2022/04/14 05:42:32;;;;;;;14.90;12.28;;;;;;;9.11;78.87;100602.39;1744565;81;20980;-79
2022/04/14 05:44:59;;;;;;;18.52;15.70;;;;;;;9.13;78.64;100593.97;1744656;82;20913;-82
2022/04/14 05:47:25;;;;;;;14.35;12.70;;;;;;;9.13;78.54;100599.20;1744625;82;21119;-84
2022/04/14 05:49:53;;;;;;;14.93;11.90;;;;;;;9.14;78.48;100597.45;1744638;82;20897;-81
2022/04/14 05:52:21;;;;;;;12.40;10.72;;;;;;;9.12;78.29;100600.15;1744586;82;20944;-82
2022/04/14 05:54:47;;;;;;;13.65;11.93;;;;;;;9.12;78.13;100604.55;1734290;82;20984;-82
2022/04/14 05:57:14;;;;;;;14.43;12.43;;;;;;;9.08;78.07;100599.93;1744665;81;21470;-81
2022/04/14 05:59:42;;;;;;;15.60;12.47;;;;;;;9.07;78.06;100612.64;1744496;82;21255;-81
2022/04/14 06:02:09;;;;;;;11.97;10.53;;;;;;;9.08;78.20;100611.70;1744850;82;21032;-82
2022/04/14 06:04:36;;;;;;;16.15;11.28;;;;;;;9.09;78.19;100603.37;1744625;82;21401;-79
2022/04/14 06:07:04;;;;;;;12.60;11.30;;;;;;;9.09;78.22;100608.17;1744634;81;20987;-82
2022/04/14 06:09:31;;;;;;;18.80;12.30;;;;;;;9.10;78.25;100609.84;1744764;81;20937;-80
2022/04/14 06:11:59;;;;;;;12.90;11.40;;;;;;;9.15;78.36;100613.52;1744681;81;20960;-80
2022/04/14 06:14:26;;;;;;;12.75;11.22;;;;;;;9.19;78.12;100617.66;1744506;82;20928;-80
2022/04/14 06:16:55;;;;;;;14.18;11.93;;;;;;;9.18;77.96;100624.28;1744569;81;20861;-80
2022/04/14 06:19:21;;;;;;;14.85;11.65;;;;;;;9.19;78.04;100616.83;1744561;81;20928;-81
2022/04/14 06:21:48;;;;;;;14.55;11.38;;;;;;;9.24;78.13;100628.72;1744560;80;20932;-82
2022/04/14 06:24:14;;;;;;;15.15;11.35;;;;;;;9.29;77.98;100641.55;1744537;81;21213;-80
2022/04/14 06:26:43;;;;;;;12.07;10.13;;;;;;;9.35;78.07;100639.91;1744557;81;20956;-80
2022/04/14 06:29:10;;;;;;;15.05;10.93;;;;;;;9.41;77.87;100646.60;1744600;82;20979;-81
2022/04/14 06:31:38;;;;;;;12.65;10.65;;;;;;;9.42;77.83;100644.34;1744572;82;20936;-81
2022/04/14 06:34:07;;;;;;;19.42;13.88;;;;;;;9.44;77.65;100642.02;1744691;81;21386;-82
2022/04/14 06:36:34;;;;;;;13.32;10.38;;;;;;;9.44;77.65;100648.56;1757992;81;21155;-81
2022/04/14 06:39:01;;;;;;;15.45;11.22;;;;;;;9.46;77.71;100645.41;1757780;81;20943;-81
2022/04/14 06:41:28;;;;;;;11.88;10.65;;;;;;;9.50;77.51;100641.69;1757907;81;21469;-81
2022/04/14 06:43:55;;;;;;;12.85;10.18;;;;;;;9.51;77.66;100647.30;1758607;81;20873;-81
2022/04/14 06:46:22;;;;;;;11.68;10.48;;;;;;;9.54;77.43;100645.84;1759319;81;20975;-83
2022/04/14 06:48:49;;;;;;;13.45;10.25;;;;;;;9.53;77.18;100648.05;1760206;81;21255;-79
2022/04/14 06:51:16;;;;;;;12.10;10.80;;;;;;;9.55;77.15;100651.91;1761228;81;20932;-79
2022/04/14 06:53:43;;;;;;;14.28;11.10;;;;;;;9.57;77.26;100655.76;1759506;81;20900;-82
2022/04/14 06:56:10;;;;;;;13.60;11.08;;;;;;;9.59;77.20;100654.74;1758746;81;21031;-81
2022/04/14 06:58:39;;;;;;;12.68;10.82;;;;;;;9.61;77.18;100654.20;1758236;81;20920;-81
2022/04/14 07:01:05;;;;;;;12.45;10.13;;;;;;;9.65;77.24;100656.16;1759073;81;21199;-82
2022/04/14 07:03:34;;;;;;;12.60;9.95;;;;;;;9.64;76.86;100657.94;1758130;81;20968;-81
2022/04/14 07:06:00;;;;;;;13.80;11.78;;;;;;;9.59;76.81;100654.74;1757873;80;20979;-83
2022/04/14 07:08:28;;;;;;;11.65;10.38;;;;;;;9.57;76.80;100651.83;1757864;81;20947;-81
2022/04/14 07:10:54;;;;;;;13.93;11.78;;;;;;;9.55;76.63;100654.05;1757811;81;20971;-82
2022/04/14 07:13:22;;;;;;;13.53;11.40;;;;;;;9.56;76.74;100657.54;1757781;80;21246;-82
2022/04/14 07:15:50;;;;;;;13.30;11.25;;;;;;;9.60;76.77;100659.50;1757794;81;20933;-83
2022/04/14 07:18:18;;;;;;;12.33;10.85;;;;;;;9.58;76.58;100655.66;1757786;81;20892;-82
2022/04/14 07:20:46;;;;;;;14.28;11.43;;;;;;;9.57;76.53;100654.45;1758389;81;20972;-83
2022/04/14 07:23:14;;;;;;;14.23;11.68;;;;;;;9.59;76.55;100655.22;1757833;80;20928;-81
2022/04/14 07:25:42;;;;;;;13.32;10.70;;;;;;;9.60;76.63;100652.48;1757895;81;21063;-82
2022/04/14 07:28:08;;;;;;;14.05;11.30;;;;;;;9.61;76.46;100652.88;1758143;81;21381;-82
2022/04/14 07:30:35;;;;;;;11.30;10.03;;;;;;;9.61;76.63;100654.20;1757912;81;20935;-83
2022/04/14 07:33:02;;;;;;;12.05;10.85;;;;;;;9.64;76.62;100660.55;1758055;81;20937;-82
2022/04/14 07:35:29;;;;;;;13.03;10.63;;;;;;;9.65;76.26;100660.95;1757810;80;20964;-83
2022/04/14 07:37:56;;;;;;;11.93;10.72;;;;;;;9.64;76.33;100663.17;1758300;81;21201;-85
2022/04/14 07:40:25;;;;;;;12.05;10.58;;;;;;;9.63;76.38;100664.13;1758329;81;20916;-82
2022/04/14 07:42:55;;;;;;;11.63;9.68;;;;;;;9.64;76.13;100667.58;1758068;81;20872;-81
2022/04/14 07:45:22;;;;;;;15.23;10.63;;;;;;;9.63;76.33;100669.36;1758217;81;21490;-81
2022/04/14 07:47:48;;;;;;;15.85;11.35;;;;;;;9.68;76.42;100673.86;1758200;81;20919;-81
2022/04/14 07:50:19;;;;;;;12.45;11.12;;;;;;;9.74;76.27;100672.70;1757954;80;20877;-84
2022/04/14 07:52:56;;;;;;;12.60;11.30;;;;;;;9.77;76.11;100675.13;1757876;81;20932;-83
2022/04/14 07:55:32;;;;;;;14.18;11.57;;;;;;;9.79;76.02;100677.67;1758110;81;21027;-82
2022/04/14 07:58:02;;;;;;;15.23;10.88;;;;;;;9.80;76.07;100676.73;1758391;81;20896;-83
2022/04/14 08:00:30;;;;;;;16.87;11.22;;;;;;;9.81;75.86;100680.58;1758186;80;20888;-83
2022/04/14 08:02:59;;;;;;;14.18;10.40;;;;;;;9.83;75.96;100678.72;1758107;81;21094;-81
2022/04/14 08:05:41;;;;;;;12.18;10.18;;;;;;;9.87;76.14;100686.80;1758203;81;20852;-82
2022/04/14 08:08:12;;;;;;;12.98;11.60;;;;;;;9.90;75.88;100686.61;1758136;81;21354;-82
2022/04/14 08:10:43;;;;;;;13.88;10.35;;;;;;;9.95;76.08;100682.42;1758475;80;20880;-84
2022/04/14 08:13:11;;;;;;;11.80;10.25;;;;;;;10.01;75.81;100681.25;1758285;81;20960;-82
2022/04/14 08:15:39;;;;;;;12.82;10.93;;;;;;;10.03;75.64;100684.16;1758237;81;21128;-81
2022/04/14 08:18:07;;;;;;;11.63;10.43;;;;;;;10.08;75.52;100685.20;1758265;81;20898;-82
2022/04/14 08:20:36;;;;;;;11.50;10.05;;;;;;;10.15;75.51;100681.29;1758126;81;20868;-82
2022/04/14 08:23:03;;;;;;;13.83;11.15;;;;;;;10.21;75.18;100695.36;1758599;81;20944;-82
2022/04/14 08:25:32;;;;;;;11.28;10.15;;;;;;;10.23;75.16;100688.25;1758320;81;21026;-81
2022/04/14 08:28:04;;;;;;;13.78;11.22;;;;;;;10.27;74.88;100694.14;1758423;80;21512;-81
2022/04/14 08:30:35;;;;;;;12.20;10.53;;;;;;;10.28;74.86;100695.85;1758201;81;20924;-82
2022/04/14 08:33:08;;;;;;;14.00;11.03;;;;;;;10.30;74.65;100698.79;1758379;81;20975;-84
2022/04/14 08:35:35;;;;;;;11.53;10.33;;;;;;;10.28;74.63;100698.00;1753505;80;20912;-82
2022/04/14 08:38:08;;;;;;;11.80;10.18;;;;;;;10.30;74.69;100695.33;1745023;81;20975;-82
2022/04/14 08:40:41;;;;;;;14.10;11.85;;;;;;;10.32;74.69;100702.64;1744868;81;21291;-82
2022/04/14 08:43:09;;;;;;;11.68;10.08;;;;;;;10.35;74.73;100691.97;1745019;82;20873;-83
2022/04/14 08:45:46;;;;;;;12.78;9.68;;;;;;;10.40;74.74;100696.47;1744895;82;20889;-82
2022/04/14 08:48:13;;;;;;;17.75;11.20;;;;;;;10.46;74.73;100701.36;1744197;81;20976;-81
2022/04/14 08:50:42;;;;;;;12.78;11.03;;;;;;;10.52;74.58;100701.48;1734508;82;21245;-82
2022/04/14 08:53:10;;;;;;;11.45;10.30;;;;;;;10.58;74.41;100690.61;1734938;82;21351;-82
2022/04/14 08:55:42;;;;;;;12.45;10.23;;;;;;;10.66;74.26;100700.67;1744882;81;21351;-81
2022/04/14 08:58:13;;;;;;;13.35;10.15;;;;;;;10.70;73.99;100703.49;1744817;82;20893;-84
2022/04/14 09:00:41;;;;;;;12.63;10.25;;;;;;;10.68;73.82;100709.30;1744821;81;21534;-83
2022/04/14 09:03:08;;;;;;;11.22;9.28;;;;;;;10.69;73.77;100703.94;1745288;81;20932;-82
2022/04/14 09:05:34;;;;;;;11.12;9.70;;;;;;;10.72;73.67;100712.11;1744923;81;22025;-81
2022/04/14 09:08:05;;;;;;;12.00;10.05;;;;;;;10.73;73.85;100711.17;1745136;81;20965;-81
2022/04/14 09:10:32;;;;;;;13.00;10.18;;;;;;;10.73;74.04;100713.31;1745088;81;20885;-82
2022/04/14 09:13:00;;;;;;;10.30;9.28;;;;;;;10.77;73.96;100720.55;1745123;81;20980;-83
2022/04/14 09:15:32;;;;;;;10.98;9.83;;;;;;;10.82;73.67;100715.02;1745385;81;20862;-81
2022/04/14 09:17:55;;;;;;;13.75;10.60;;;;;;;10.83;73.51;100715.39;1744857;81;21402;-82
2022/04/14 09:20:37;;;;;;;11.43;10.00;;;;;;;10.89;73.27;100717.66;1745285;82;20885;-82
2022/04/14 09:23:15;;;;;;;11.85;10.63;;;;;;;10.89;73.12;100711.09;1745076;82;20909;-83
2022/04/14 09:25:44;;;;;;;11.90;10.38;;;;;;;10.90;73.17;100719.36;1745058;82;21423;-82
2022/04/14 09:28:16;;;;;;;13.60;9.18;;;;;;;10.89;72.81;100719.80;1745339;82;21501;-84
2022/04/14 09:31:04;;;;;;;11.55;10.35;;;;;;;10.87;72.88;100729.57;1745544;82;21121;-83
2022/04/14 09:33:34;;;;;;;10.70;9.58;;;;;;;10.86;72.95;100723.09;1744929;81;21454;-84
2022/04/14 09:36:18;;;;;;;13.00;10.15;;;;;;;10.83;72.83;100725.88;1744894;81;21538;-81
2022/04/14 09:39:02;;;;;;;;;;;;;;;10.79;72.84;100730.48;1747441;81;21058;-83
2022/04/14 09:41:37;;;;;;;11.97;9.10;;;;;;;10.80;72.67;100732.16;1744866;82;20104;-82
2022/04/14 09:44:09;;;;;;;10.28;9.28;;;;;;;10.84;72.86;100732.83;1745431;81;21250;-84
2022/04/14 09:46:45;;;;;;;9.95;8.68;;;;;;;10.89;72.88;100746.52;1745848;81;20866;-81
2022/04/14 09:49:16;;;;;;;13.13;9.80;;;;;;;10.93;72.59;100743.61;1745211;81;20969;-82
2022/04/14 09:51:45;;;;;;;10.85;9.28;;;;;;;10.93;72.23;100754.11;1744799;81;20941;-83
2022/04/14 09:54:28;;;;;;;10.68;9.10;;;;;;;10.90;72.11;100748.22;1744923;82;21105;-83
2022/04/14 09:56:56;;;;;;;11.85;9.43;;;;;;;10.88;71.98;100747.47;1744809;81;21273;-82
2022/04/14 09:59:26;;;;;;;10.40;9.15;;;;;;;10.86;71.90;100753.27;1709246;84;20939;-82
2022/04/14 10:02:14;;;;;;;9.63;8.63;;;;;;;10.84;71.93;100759.91;1709536;84;20983;-82
2022/04/14 10:04:48;;;;;;;10.40;9.30;;;;;;;10.88;72.00;100765.83;1710049;84;20977;-83
2022/04/14 10:07:16;;;;;;;;;;;;;;;10.94;72.20;100770.72;1713509;84;20885;-80
2022/04/14 10:09:50;;;;;;;9.85;8.65;;;;;;;11.01;72.08;100776.45;1698243;84;21120;-82
2022/04/14 10:12:26;;;;;;;11.05;9.28;;;;;;;10.98;72.17;100777.45;1696533;84;20942;-81
2022/04/14 10:15:04;;;;;;;8.85;7.55;;;;;;;10.96;72.49;100771.00;1695755;84;20985;-83
2022/04/14 10:17:35;;;;;;;10.10;8.45;;;;;;;10.98;72.91;100772.20;1695843;84;21027;-81
2022/04/14 10:20:05;;;;;;;10.13;7.65;;;;;;;10.97;73.00;100777.09;1709218;83;20917;-82
2022/04/14 10:22:33;;;;;;;9.88;8.18;;;;;;;10.93;73.16;100775.09;1708532;83;21256;-82
2022/04/14 10:25:03;;;;;;;10.18;9.13;;;;;;;10.96;73.09;100778.00;1681263;83;20975;-82
2022/04/14 10:27:30;;;;;;;11.05;9.55;;;;;;;10.98;73.12;100780.08;1709280;84;21462;-82
2022/04/14 10:29:58;;;;;;;10.63;8.78;;;;;;;11.02;73.02;100782.90;1708574;84;20877;-83
2022/04/14 10:32:25;;;;;;;14.50;10.28;;;;;;;11.05;72.84;100783.18;1708678;84;20999;-83
2022/04/14 10:34:55;;;;;;;12.78;11.18;;;;;;;11.03;72.95;100785.91;1708575;84;20865;-84
2022/04/14 10:37:45;;;;;;;10.58;7.72;;;;;;;10.99;72.98;100790.97;1713589;83;20960;-81
2022/04/14 10:40:12;;;;;;;10.55;9.23;;;;;;;10.97;72.75;100791.05;1714201;83;20960;-83
2022/04/14 10:42:52;;;;;;;10.05;8.35;;;;;;;10.94;72.69;100789.09;1714201;83;20912;-83
2022/04/14 10:45:24;;;;;;;9.33;8.33;;;;;;;10.91;72.58;100794.50;1714406;83;20909;-83
2022/04/14 10:47:57;;;;;;;10.43;9.23;;;;;;;10.87;72.57;100796.47;1714185;83;22004;-82
2022/04/14 10:50:31;;;;;;;10.20;8.80;;;;;;;10.89;72.60;100810.80;1715055;83;20944;-83
2022/04/14 10:53:09;;;;;;;12.28;9.30;;;;;;;10.88;72.55;100809.12;1715594;83;20861;-83
2022/04/14 10:55:44;;;;;;;10.53;8.95;;;;;;;10.86;72.36;100811.82;1708782;83;21377;-82
2022/04/14 10:58:40;;;;;;;11.60;8.60;;;;;;;10.87;72.50;100821.84;1714661;83;21038;-80
2022/04/14 11:01:14;;;;;;;9.35;8.38;;;;;;;10.85;72.40;100821.95;1714050;83;21182;-82
2022/04/14 11:03:57;;;;;;;11.50;8.33;;;;;;;10.82;72.47;100814.72;1715039;83;20959;-82
2022/04/14 11:06:47;;;;;;;11.93;9.48;;;;;;;10.81;72.61;100818.28;1713409;83;20881;-82
2022/04/14 11:09:49;;;;;;;9.70;8.33;;;;;;;10.79;72.50;100824.45;1714731;83;20937;-82
2022/04/14 11:12:22;;;;;;;12.88;8.93;;;;;;;10.76;72.24;100829.02;1714413;83;21056;-84
2022/04/14 11:15:08;;;;;;;13.15;9.93;;;;;;;10.74;72.43;100829.59;1714272;83;21338;-85
2022/04/14 11:17:42;;;;;;;10.25;9.25;;;;;;;10.76;72.63;100835.57;1714189;83;20940;-82
2022/04/14 11:20:34;;;;;;;11.48;10.25;;;;;;;10.81;72.56;100843.20;1714241;83;21035;-83
2022/04/14 11:23:12;;;;;;;10.93;8.85;;;;;;;10.83;72.44;100843.94;1714273;83;21589;-82
2022/04/14 11:25:48;;;;;;;11.97;10.08;;;;;;;10.82;72.27;100837.85;1714025;83;21096;-81